Time;durP1;ratioP1;P1;durP2;ratioP2;P2;SDS_P1;SDS_P2;PMS_P1;PMS_P2;Temp;Humidity;BMP_temperature;BMP_pressure;BME280_temperature;BME280_humidity;BME280_pressure;Samples;Min_cycle;Max_cycle;Signal;HPM_P1;HPM_P2
2023/12/30 00:01:41;;;;;;;0.40;0.40;;;;;;;;;;5058711;28;20519;-67
2023/12/30 00:04:06;;;;;;;0.65;0.40;;;;;;;;;;5059065;28;20048;-65
2023/12/30 00:06:33;;;;;;;0.40;0.40;;;;;;;;;;5059318;28;20053;-67
2023/12/30 00:08:58;;;;;;;0.50;0.50;;;;;;;;;;5059021;28;20059;-65
2023/12/30 00:11:24;;;;;;;0.30;0.30;;;;;;;;;;5057412;28;20044;-68
2023/12/30 00:13:49;;;;;;;0.30;0.30;;;;;;;;;;5059020;28;20473;-65
2023/12/30 00:16:14;;;;;;;0.45;0.45;;;;;;;;;;5057832;28;20571;-65
2023/12/30 00:18:40;;;;;;;1.25;0.60;;;;;;;;;;5058370;28;21321;-66
2023/12/30 00:21:05;;;;;;;0.80;0.80;;;;;;;;;;5057233;28;20056;-66
2023/12/30 00:23:31;;;;;;;0.40;0.40;;;;;;;;;;5049994;28;20049;-66
2023/12/30 00:25:56;;;;;;;0.40;0.40;;;;;;;;;;5021812;28;20132;-67
2023/12/30 00:28:21;;;;;;;0.30;0.30;;;;;;;;;;5019633;28;20052;-65
2023/12/30 00:30:47;;;;;;;0.40;0.40;;;;;;;;;;5021614;28;20052;-66
2023/12/30 00:33:13;;;;;;;0.57;0.50;;;;;;;;;;5061727;28;20064;-64
2023/12/30 00:35:38;;;;;;;0.50;0.50;;;;;;;;;;5020892;28;20042;-67
2023/12/30 00:38:04;;;;;;;0.25;0.25;;;;;;;;;;5019988;28;20065;-63
2023/12/30 00:40:29;;;;;;;0.50;0.50;;;;;;;;;;5003172;28;20641;-67
2023/12/30 00:42:54;;;;;;;0.70;0.60;;;;;;;;;;5034880;28;20361;-66
2023/12/30 00:45:20;;;;;;;0.40;0.40;;;;;;;;;;5036246;28;20044;-67
2023/12/30 00:47:45;;;;;;;0.30;0.30;;;;;;;;;;5035944;28;20101;-66
2023/12/30 00:50:11;;;;;;;0.32;0.32;;;;;;;;;;5042090;28;20040;-66
2023/12/30 00:52:37;;;;;;;0.50;0.50;;;;;;;;;;5036272;28;20486;-67
2023/12/30 00:55:03;;;;;;;0.32;0.32;;;;;;;;;;5048747;28;20047;-66
2023/12/30 00:57:28;;;;;;;0.77;0.73;;;;;;;;;;5004618;28;20392;-65
2023/12/30 00:59:53;;;;;;;0.77;0.45;;;;;;;;;;5038286;28;20057;-63
2023/12/30 01:02:19;;;;;;;0.77;0.70;;;;;;;;;;5037502;28;21037;-67
2023/12/30 01:04:44;;;;;;;0.98;0.70;;;;;;;;;;5036715;28;20128;-65
2023/12/30 01:07:09;;;;;;;0.57;0.50;;;;;;;;;;5033829;28;20510;-66
2023/12/30 01:09:35;;;;;;;0.88;0.63;;;;;;;;;;5035901;28;20110;-64
2023/12/30 01:12:00;;;;;;;0.30;0.30;;;;;;;;;;5034996;28;20049;-64
2023/12/30 01:14:26;;;;;;;0.40;0.40;;;;;;;;;;5016408;28;20051;-66
2023/12/30 01:16:51;;;;;;;0.30;0.30;;;;;;;;;;5017660;28;20132;-65
2023/12/30 01:19:16;;;;;;;0.40;0.40;;;;;;;;;;5035225;28;20051;-67
2023/12/30 01:21:42;;;;;;;1.95;0.40;;;;;;;;;;5018954;28;20076;-65
2023/12/30 01:24:07;;;;;;;0.20;0.20;;;;;;;;;;5028068;28;20161;-67
2023/12/30 01:26:33;;;;;;;0.88;0.65;;;;;;;;;;5038419;28;20052;-65
2023/12/30 01:28:58;;;;;;;0.63;0.45;;;;;;;;;;5013088;28;20040;-67
2023/12/30 01:31:24;;;;;;;0.50;0.50;;;;;;;;;;5012958;28;20068;-66
2023/12/30 01:33:49;;;;;;;0.68;0.60;;;;;;;;;;5028203;28;21064;-65
2023/12/30 01:36:15;;;;;;;0.50;0.50;;;;;;;;;;5019237;28;20151;-66
2023/12/30 01:38:41;;;;;;;0.43;0.43;;;;;;;;;;5036876;28;20067;-63
2023/12/30 01:41:08;;;;;;;0.55;0.55;;;;;;;;;;5035307;28;20040;-67
2023/12/30 01:43:33;;;;;;;0.60;0.60;;;;;;;;;;5021494;28;20044;-67
2023/12/30 01:46:05;;;;;;;0.75;0.70;;;;;;;;;;5036104;28;20049;-64
2023/12/30 01:48:31;;;;;;;0.55;0.55;;;;;;;;;;5036844;28;20048;-67
2023/12/30 01:50:59;;;;;;;0.45;0.45;;;;;;;;;;5035238;28;20411;-67
2023/12/30 01:53:30;;;;;;;0.70;0.70;;;;;;;;;;5034807;28;20133;-68
2023/12/30 01:55:57;;;;;;;0.60;0.60;;;;;;;;;;5036992;28;20080;-66
2023/12/30 01:58:23;;;;;;;0.68;0.68;;;;;;;;;;5034110;28;20050;-67
2023/12/30 02:00:49;;;;;;;0.60;0.60;;;;;;;;;;5035631;28;20489;-66
2023/12/30 02:03:15;;;;;;;0.70;0.70;;;;;;;;;;5034623;28;20140;-64
2023/12/30 02:05:42;;;;;;;0.73;0.40;;;;;;;;;;5035801;28;20422;-64
2023/12/30 02:08:09;;;;;;;1.75;0.57;;;;;;;;;;5036888;28;20056;-64
2023/12/30 02:10:35;;;;;;;0.57;0.50;;;;;;;;;;5034994;28;20048;-67
2023/12/30 02:13:00;;;;;;;0.60;0.60;;;;;;;;;;5036490;28;20037;-64
2023/12/30 02:15:26;;;;;;;0.60;0.60;;;;;;;;;;5030585;28;20041;-65
2023/12/30 02:17:54;;;;;;;0.65;0.65;;;;;;;;;;5021563;28;20232;-66
2023/12/30 02:20:20;;;;;;;0.90;0.73;;;;;;;;;;5036784;28;20156;-65
2023/12/30 02:22:47;;;;;;;0.65;0.65;;;;;;;;;;5019670;28;20091;-66
2023/12/30 02:25:16;;;;;;;0.52;0.40;;;;;;;;;;5033447;28;20418;-66
2023/12/30 02:27:42;;;;;;;0.47;0.47;;;;;;;;;;5038958;28;20052;-68
2023/12/30 02:30:09;;;;;;;0.60;0.60;;;;;;;;;;5023911;28;20544;-66
2023/12/30 02:32:34;;;;;;;1.45;0.60;;;;;;;;;;5032807;28;20049;-63
2023/12/30 02:35:00;;;;;;;0.68;0.68;;;;;;;;;;5017836;28;20045;-67
2023/12/30 02:37:25;;;;;;;0.70;0.70;;;;;;;;;;4999897;28;20562;-65
2023/12/30 02:39:52;;;;;;;0.90;0.75;;;;;;;;;;5022078;28;20914;-66
2023/12/30 02:42:18;;;;;;;0.50;0.50;;;;;;;;;;5018808;28;20046;-66
2023/12/30 02:44:43;;;;;;;0.57;0.57;;;;;;;;;;5015798;28;20045;-65
2023/12/30 02:47:09;;;;;;;0.80;0.80;;;;;;;;;;5032679;28;20041;-67
2023/12/30 02:49:36;;;;;;;0.85;0.70;;;;;;;;;;5035560;28;20132;-67
2023/12/30 02:52:01;;;;;;;1.95;0.70;;;;;;;;;;5035040;28;20064;-65
2023/12/30 02:54:27;;;;;;;0.57;0.57;;;;;;;;;;5034502;28;20044;-68
2023/12/30 02:56:53;;;;;;;0.70;0.70;;;;;;;;;;5034062;28;20049;-66
2023/12/30 02:59:18;;;;;;;0.60;0.60;;;;;;;;;;5035126;28;20049;-65
2023/12/30 03:01:44;;;;;;;0.60;0.60;;;;;;;;;;5035982;28;20060;-66
2023/12/30 03:04:09;;;;;;;0.75;0.75;;;;;;;;;;5035864;28;20072;-63
2023/12/30 03:06:35;;;;;;;1.40;0.90;;;;;;;;;;5035113;28;20047;-67
2023/12/30 03:09:01;;;;;;;0.80;0.80;;;;;;;;;;5036143;28;20049;-67
2023/12/30 03:11:26;;;;;;;0.63;0.63;;;;;;;;;;5034238;28;20516;-67
2023/12/30 03:13:51;;;;;;;0.95;0.70;;;;;;;;;;5038108;28;20079;-67
2023/12/30 03:16:18;;;;;;;0.88;0.80;;;;;;;;;;5038949;28;20557;-68
2023/12/30 03:18:45;;;;;;;2.45;0.88;;;;;;;;;;5037644;28;20617;-67
2023/12/30 03:21:11;;;;;;;1.38;0.80;;;;;;;;;;5039042;28;20048;-65
2023/12/30 03:23:37;;;;;;;0.80;0.80;;;;;;;;;;5037777;28;20045;-66
2023/12/30 03:26:07;;;;;;;1.10;1.00;;;;;;;;;;5039750;28;20048;-67
2023/12/30 03:28:33;;;;;;;2.35;0.80;;;;;;;;;;5039353;28;20818;-64
2023/12/30 03:30:59;;;;;;;3.22;0.73;;;;;;;;;;5038838;28;20102;-66
2023/12/30 03:33:24;;;;;;;0.88;0.80;;;;;;;;;;5038538;28;20652;-66
2023/12/30 03:35:52;;;;;;;0.60;0.60;;;;;;;;;;5035943;28;20042;-64
2023/12/30 03:38:17;;;;;;;0.80;0.80;;;;;;;;;;5029601;28;20056;-67
2023/12/30 03:40:43;;;;;;;0.80;0.80;;;;;;;;;;5031260;28;20044;-67
2023/12/30 03:43:08;;;;;;;1.00;0.90;;;;;;;;;;5039094;28;20052;-67
2023/12/30 03:45:34;;;;;;;1.55;1.00;;;;;;;;;;5037253;28;20461;-63
2023/12/30 03:47:59;;;;;;;0.88;0.82;;;;;;;;;;5039128;28;20052;-68
2023/12/30 03:50:25;;;;;;;1.77;0.90;;;;;;;;;;5038503;28;20048;-66
2023/12/30 03:52:51;;;;;;;0.77;0.77;;;;;;;;;;5038914;28;20095;-67
2023/12/30 03:55:17;;;;;;;1.27;0.90;;;;;;;;;;5037870;28;20571;-65
2023/12/30 03:57:42;;;;;;;0.90;0.90;;;;;;;;;;5037616;28;20060;-67
2023/12/30 04:00:08;;;;;;;1.00;0.90;;;;;;;;;;5037452;28;20074;-65
2023/12/30 04:02:40;;;;;;;1.20;1.10;;;;;;;;;;5036501;28;20077;-68
2023/12/30 04:05:06;;;;;;;1.00;0.90;;;;;;;;;;5038972;28;20076;-67
2023/12/30 04:07:32;;;;;;;1.48;1.00;;;;;;;;;;5036105;28;20045;-65
2023/12/30 04:09:58;;;;;;;1.10;1.00;;;;;;;;;;5039375;28;20095;-67
2023/12/30 04:12:23;;;;;;;1.10;1.10;;;;;;;;;;5038182;28;20072;-64
2023/12/30 04:14:49;;;;;;;0.40;0.40;;;;;;;;;;5035944;28;20045;-63
2023/12/30 04:17:15;;;;;;;0.63;0.63;;;;;;;;;;5035896;28;20053;-64
2023/12/30 04:19:41;;;;;;;0.60;0.60;;;;;;;;;;5037454;28;20461;-65
2023/12/30 04:22:07;;;;;;;2.92;0.80;;;;;;;;;;5037303;28;20049;-65
2023/12/30 04:24:32;;;;;;;0.95;0.70;;;;;;;;;;5035615;28;20147;-67
2023/12/30 04:26:57;;;;;;;1.08;0.85;;;;;;;;;;5036755;28;20933;-66
2023/12/30 04:29:23;;;;;;;0.85;0.85;;;;;;;;;;5036682;28;20124;-67
2023/12/30 04:31:49;;;;;;;0.75;0.75;;;;;;;;;;5036723;28;20044;-66
2023/12/30 04:34:14;;;;;;;3.10;1.17;;;;;;;;;;5036106;28;20049;-66
2023/12/30 04:36:40;;;;;;;1.02;0.93;;;;;;;;;;5037555;28;20060;-64
2023/12/30 04:39:05;;;;;;;0.85;0.82;;;;;;;;;;5036243;28;20049;-67
2023/12/30 04:41:31;;;;;;;1.00;0.90;;;;;;;;;;5035993;28;20056;-67
2023/12/30 04:43:58;;;;;;;1.17;1.08;;;;;;;;;;5036485;28;20606;-67
2023/12/30 04:46:23;;;;;;;0.60;0.60;;;;;;;;;;5017742;28;20045;-65
2023/12/30 04:48:52;;;;;;;0.93;0.77;;;;;;;;;;5002069;28;20102;-64
2023/12/30 04:51:18;;;;;;;1.83;1.00;;;;;;;;;;5020749;28;20124;-64
2023/12/30 04:53:44;;;;;;;1.70;0.82;;;;;;;;;;5020005;28;20479;-66
2023/12/30 04:56:16;;;;;;;1.00;1.00;;;;;;;;;;5022422;28;20160;-67
2023/12/30 04:58:42;;;;;;;1.52;1.00;;;;;;;;;;5019489;28;20514;-67
2023/12/30 05:01:13;;;;;;;1.30;1.00;;;;;;;;;;5032968;28;20033;-66
2023/12/30 05:03:41;;;;;;;0.70;0.70;;;;;;;;;;5015223;28;20513;-66
2023/12/30 05:06:06;;;;;;;1.20;1.10;;;;;;;;;;5021199;28;20049;-66
2023/12/30 05:08:32;;;;;;;1.42;1.15;;;;;;;;;;5018174;28;20064;-66
2023/12/30 05:10:57;;;;;;;1.25;0.90;;;;;;;;;;5018961;28;20082;-67
2023/12/30 05:13:23;;;;;;;1.38;1.13;;;;;;;;;;5024404;28;20047;-64
2023/12/30 05:15:49;;;;;;;1.80;1.10;;;;;;;;;;5031279;28;20041;-66
2023/12/30 05:18:15;;;;;;;2.10;1.40;;;;;;;;;;5040359;28;20044;-67
2023/12/30 05:20:41;;;;;;;1.00;0.95;;;;;;;;;;5056736;28;20817;-67
2023/12/30 05:23:06;;;;;;;1.23;1.13;;;;;;;;;;5056395;28;20052;-64
2023/12/30 05:25:32;;;;;;;1.00;1.00;;;;;;;;;;5057060;28;20052;-65
2023/12/30 05:27:57;;;;;;;1.30;1.20;;;;;;;;;;5057152;28;20040;-68
2023/12/30 05:30:23;;;;;;;1.13;1.10;;;;;;;;;;5055705;28;20044;-66
2023/12/30 05:32:48;;;;;;;1.30;1.20;;;;;;;;;;5057293;28;20448;-65
2023/12/30 05:35:14;;;;;;;1.27;1.17;;;;;;;;;;5056332;28;20052;-68
2023/12/30 05:37:40;;;;;;;2.55;1.30;;;;;;;;;;5055926;28;21882;-67
2023/12/30 05:40:08;;;;;;;1.25;1.15;;;;;;;;;;5057520;28;20055;-64
2023/12/30 05:42:34;;;;;;;4.75;1.40;;;;;;;;;;5055563;28;20067;-65
2023/12/30 05:45:00;;;;;;;1.45;1.30;;;;;;;;;;5057129;28;20044;-67
2023/12/30 05:47:25;;;;;;;1.23;1.13;;;;;;;;;;5056024;28;20063;-64
2023/12/30 05:49:50;;;;;;;1.38;1.27;;;;;;;;;;5057312;28;20082;-67
2023/12/30 05:52:16;;;;;;;1.23;1.10;;;;;;;;;;5056513;28;20071;-63
2023/12/30 05:54:43;;;;;;;4.13;1.00;;;;;;;;;;5056444;28;20078;-67
2023/12/30 05:57:09;;;;;;;3.08;1.20;;;;;;;;;;5055687;28;20040;-67
2023/12/30 05:59:34;;;;;;;1.00;1.00;;;;;;;;;;5056305;28;20041;-66
2023/12/30 06:01:59;;;;;;;1.27;1.17;;;;;;;;;;5056357;28;20040;-67
2023/12/30 06:04:25;;;;;;;1.40;1.30;;;;;;;;;;5055470;28;20734;-66
2023/12/30 06:06:51;;;;;;;1.10;1.08;;;;;;;;;;5056558;28;20068;-67
2023/12/30 06:09:16;;;;;;;1.38;1.20;;;;;;;;;;5056165;28;20067;-65
2023/12/30 06:11:41;;;;;;;0.93;0.93;;;;;;;;;;5056469;28;20854;-67
2023/12/30 06:14:07;;;;;;;2.35;1.30;;;;;;;;;;5056553;28;20619;-66
2023/12/30 06:16:32;;;;;;;0.80;0.80;;;;;;;;;;5055078;28;20502;-63
2023/12/30 06:18:58;;;;;;;1.05;0.95;;;;;;;;;;5056692;28;20813;-66
2023/12/30 06:21:23;;;;;;;1.38;1.27;;;;;;;;;;5055437;28;20080;-65
2023/12/30 06:23:48;;;;;;;1.27;1.17;;;;;;;;;;5057146;28;20441;-66
2023/12/30 06:26:14;;;;;;;1.42;1.33;;;;;;;;;;5056468;28;20090;-65
2023/12/30 06:28:39;;;;;;;1.48;1.08;;;;;;;;;;5056978;28;20135;-64
2023/12/30 06:31:05;;;;;;;1.75;1.45;;;;;;;;;;5057042;28;20056;-67
2023/12/30 06:33:30;;;;;;;1.20;1.10;;;;;;;;;;5056029;28;20052;-64
2023/12/30 06:35:55;;;;;;;1.30;1.20;;;;;;;;;;5056579;28;20083;-65
2023/12/30 06:38:21;;;;;;;2.55;1.30;;;;;;;;;;5055527;28;20087;-66
2023/12/30 06:40:47;;;;;;;1.38;1.27;;;;;;;;;;5056545;28;20502;-66
2023/12/30 06:43:13;;;;;;;1.77;1.08;;;;;;;;;;5055476;28;20088;-63
2023/12/30 06:45:38;;;;;;;1.77;1.20;;;;;;;;;;5056375;28;20185;-65
2023/12/30 06:48:04;;;;;;;2.67;1.77;;;;;;;;;;5057749;28;20881;-66
2023/12/30 06:50:29;;;;;;;1.60;1.50;;;;;;;;;;5052427;28;20056;-67
2023/12/30 06:52:56;;;;;;;1.52;1.42;;;;;;;;;;5039291;28;20048;-64
2023/12/30 06:55:22;;;;;;;2.05;1.48;;;;;;;;;;5054843;28;20063;-67
2023/12/30 06:57:48;;;;;;;1.27;1.17;;;;;;;;;;5053692;28;20119;-67
2023/12/30 07:00:13;;;;;;;1.42;1.30;;;;;;;;;;5056498;28;20036;-66
2023/12/30 07:02:41;;;;;;;3.60;1.52;;;;;;;;;;5056593;28;20139;-67
2023/12/30 07:05:10;;;;;;;1.40;1.30;;;;;;;;;;5057256;28;20110;-64
2023/12/30 07:07:35;;;;;;;2.25;1.05;;;;;;;;;;5058055;28;20055;-64
2023/12/30 07:10:03;;;;;;;1.30;1.20;;;;;;;;;;5057434;28;20052;-67
2023/12/30 07:12:28;;;;;;;1.52;1.40;;;;;;;;;;5055203;28;20045;-67
2023/12/30 07:14:54;;;;;;;1.55;1.02;;;;;;;;;;5057561;28;20036;-67
2023/12/30 07:17:19;;;;;;;2.22;1.50;;;;;;;;;;5007630;28;20081;-66
2023/12/30 07:19:44;;;;;;;1.85;1.40;;;;;;;;;;5037256;28;20044;-67
2023/12/30 07:22:10;;;;;;;1.35;1.20;;;;;;;;;;5037604;28;20514;-67
2023/12/30 07:24:37;;;;;;;1.02;1.00;;;;;;;;;;5037498;28;20914;-63
2023/12/30 07:27:02;;;;;;;1.48;1.38;;;;;;;;;;5038547;28;20076;-67
2023/12/30 07:29:28;;;;;;;1.40;1.27;;;;;;;;;;5037237;28;20136;-63
2023/12/30 07:31:53;;;;;;;1.08;1.00;;;;;;;;;;5037186;28;20044;-68
2023/12/30 07:34:19;;;;;;;1.13;1.02;;;;;;;;;;5037534;28;20037;-67
2023/12/30 07:36:44;;;;;;;1.10;1.00;;;;;;;;;;5036830;28;20495;-67
2023/12/30 07:39:09;;;;;;;2.45;1.40;;;;;;;;;;5043337;28;20514;-67
2023/12/30 07:41:37;;;;;;;1.33;1.23;;;;;;;;;;5038463;28;20049;-64
2023/12/30 07:44:02;;;;;;;1.60;1.30;;;;;;;;;;5041017;28;20046;-67
2023/12/30 07:46:28;;;;;;;2.65;1.00;;;;;;;;;;5036910;28;20044;-66
2023/12/30 07:48:53;;;;;;;2.22;1.17;;;;;;;;;;5036964;28;20044;-65
2023/12/30 07:51:19;;;;;;;3.80;1.20;;;;;;;;;;5043494;28;20040;-65
2023/12/30 07:53:44;;;;;;;1.13;1.10;;;;;;;;;;5035185;28;20041;-67
2023/12/30 07:56:10;;;;;;;1.17;0.95;;;;;;;;;;5036750;28;20045;-65
2023/12/30 07:58:35;;;;;;;1.35;1.00;;;;;;;;;;5036214;28;20136;-67
2023/12/30 08:01:01;;;;;;;0.73;0.73;;;;;;;;;;5038269;28;20464;-67
2023/12/30 08:03:26;;;;;;;1.13;1.05;;;;;;;;;;5044119;28;20061;-68
2023/12/30 08:05:51;;;;;;;1.90;1.00;;;;;;;;;;5034779;28;20048;-64
2023/12/30 08:08:17;;;;;;;0.60;0.60;;;;;;;;;;5036314;28;20045;-65
2023/12/30 08:10:42;;;;;;;0.80;0.80;;;;;;;;;;5027542;28;20658;-69
2023/12/30 08:13:08;;;;;;;1.48;1.13;;;;;;;;;;5019251;28;20068;-65
2023/12/30 08:15:33;;;;;;;0.93;0.90;;;;;;;;;;5032198;28;20187;-63
2023/12/30 08:17:59;;;;;;;1.00;0.90;;;;;;;;;;4999443;28;20041;-67
2023/12/30 08:20:24;;;;;;;0.82;0.82;;;;;;;;;;5033390;28;20052;-64
2023/12/30 08:22:50;;;;;;;0.93;0.93;;;;;;;;;;5034113;28;20037;-67
2023/12/30 08:25:16;;;;;;;1.55;0.98;;;;;;;;;;5043430;28;20106;-65
2023/12/30 08:27:41;;;;;;;1.50;1.08;;;;;;;;;;5039908;28;20044;-68
2023/12/30 08:30:07;;;;;;;0.60;0.60;;;;;;;;;;5040828;28;20562;-65
2023/12/30 08:32:33;;;;;;;0.88;0.82;;;;;;;;;;5043017;28;20050;-66
2023/12/30 08:34:58;;;;;;;0.80;0.80;;;;;;;;;;5038603;28;20080;-66
2023/12/30 08:37:24;;;;;;;1.00;0.90;;;;;;;;;;5044047;28;20041;-64
2023/12/30 08:39:50;;;;;;;0.82;0.82;;;;;;;;;;5015142;28;20115;-66
2023/12/30 08:42:15;;;;;;;2.15;0.90;;;;;;;;;;5037871;28;20044;-68
2023/12/30 08:44:43;;;;;;;2.13;1.23;;;;;;;;;;5049910;28;20525;-66
2023/12/30 08:47:12;;;;;;;2.97;0.82;;;;;;;;;;5053024;28;20105;-65
2023/12/30 08:49:38;;;;;;;1.85;1.00;;;;;;;;;;5041949;28;20048;-67
2023/12/30 08:52:06;;;;;;;0.93;0.90;;;;;;;;;;5041793;28;20955;-67
2023/12/30 08:54:32;;;;;;;1.63;1.02;;;;;;;;;;5043587;28;20055;-65
2023/12/30 08:56:57;;;;;;;0.90;0.90;;;;;;;;;;5027008;28;21541;-67
2023/12/30 08:59:26;;;;;;;1.63;1.08;;;;;;;;;;5018756;28;20112;-66
2023/12/30 09:01:52;;;;;;;0.90;0.90;;;;;;;;;;5040459;28;20061;-67
2023/12/30 09:04:18;;;;;;;0.93;0.88;;;;;;;;;;5041189;28;20072;-68
2023/12/30 09:06:44;;;;;;;1.17;1.08;;;;;;;;;;5044995;28;20801;-66
2023/12/30 09:09:11;;;;;;;1.70;0.90;;;;;;;;;;5046840;28;20044;-66
2023/12/30 09:11:38;;;;;;;0.88;0.82;;;;;;;;;;5050064;28;20055;-68
2023/12/30 09:14:04;;;;;;;1.50;0.80;;;;;;;;;;5043742;28;20044;-66
2023/12/30 09:16:30;;;;;;;1.80;0.80;;;;;;;;;;5039779;28;20068;-66
2023/12/30 09:18:55;;;;;;;0.88;0.85;;;;;;;;;;5051506;28;20505;-65
2023/12/30 09:21:21;;;;;;;1.52;0.77;;;;;;;;;;5044890;28;20044;-64
2023/12/30 09:23:46;;;;;;;0.88;0.88;;;;;;;;;;5017849;28;20048;-67
2023/12/30 09:26:16;;;;;;;9.60;1.10;;;;;;;;;;5031447;28;20045;-63
2023/12/30 09:28:41;;;;;;;0.82;0.63;;;;;;;;;;5043213;28;20104;-68
2023/12/30 09:31:07;;;;;;;1.92;0.95;;;;;;;;;;5048539;28;20530;-68
2023/12/30 09:33:32;;;;;;;1.10;0.70;;;;;;;;;;5043570;28;20049;-67
2023/12/30 09:35:58;;;;;;;1.08;0.80;;;;;;;;;;5051510;28;20047;-66
2023/12/30 09:38:24;;;;;;;1.90;0.80;;;;;;;;;;5049791;28;20048;-68
2023/12/30 09:40:52;;;;;;;0.88;0.75;;;;;;;;;;5055470;28;20147;-69
2023/12/30 09:43:25;;;;;;;0.98;0.70;;;;;;;;;;5040642;28;20049;-67
2023/12/30 09:45:52;;;;;;;1.15;0.90;;;;;;;;;;5024133;28;20565;-65
2023/12/30 09:48:20;;;;;;;1.33;0.85;;;;;;;;;;5019257;28;20049;-67
2023/12/30 09:50:48;;;;;;;0.68;0.68;;;;;;;;;;5020240;28;20068;-67
2023/12/30 09:53:13;;;;;;;1.75;1.02;;;;;;;;;;5021878;28;20053;-68
2023/12/30 09:55:38;;;;;;;1.63;0.70;;;;;;;;;;5036360;28;20053;-67
2023/12/30 09:58:05;;;;;;;0.75;0.75;;;;;;;;;;5044594;28;21140;-68
2023/12/30 10:00:31;;;;;;;1.08;0.70;;;;;;;;;;5045966;28;20144;-68
2023/12/30 10:02:58;;;;;;;1.77;0.70;;;;;;;;;;5039713;28;20053;-66
2023/12/30 10:05:23;;;;;;;0.52;0.52;;;;;;;;;;5043903;28;20044;-68
2023/12/30 10:07:49;;;;;;;0.85;0.60;;;;;;;;;;5038486;28;20066;-68
2023/12/30 10:10:30;;;;;;;0.70;0.70;;;;;;;;;;5034637;28;20506;-68
2023/12/30 10:12:56;;;;;;;1.60;0.70;;;;;;;;;;5030182;28;20040;-66
2023/12/30 10:15:21;;;;;;;0.60;0.60;;;;;;;;;;5047961;28;20033;-67
2023/12/30 10:17:47;;;;;;;0.70;0.70;;;;;;;;;;5039609;28;20052;-67
2023/12/30 10:20:13;;;;;;;0.50;0.45;;;;;;;;;;5041657;28;20183;-66
2023/12/30 10:22:39;;;;;;;1.85;0.68;;;;;;;;;;5049804;28;20099;-65
2023/12/30 10:25:07;;;;;;;1.13;0.60;;;;;;;;;;5042999;28;20141;-67
2023/12/30 10:27:33;;;;;;;0.55;0.55;;;;;;;;;;5042072;28;20552;-66
2023/12/30 10:29:58;;;;;;;0.85;0.65;;;;;;;;;;5035840;28;20464;-65
2023/12/30 10:32:24;;;;;;;0.50;0.50;;;;;;;;;;5021115;28;20041;-67
2023/12/30 10:34:49;;;;;;;1.10;0.60;;;;;;;;;;5022632;28;20037;-67
2023/12/30 10:37:16;;;;;;;1.08;0.55;;;;;;;;;;5023970;28;20092;-64
2023/12/30 10:39:42;;;;;;;0.65;0.50;;;;;;;;;;5022878;28;20136;-65
2023/12/30 10:42:07;;;;;;;0.80;0.80;;;;;;;;;;5043523;28;20063;-64
2023/12/30 10:44:33;;;;;;;0.98;0.60;;;;;;;;;;5028141;28;20045;-66
2023/12/30 10:46:59;;;;;;;0.60;0.60;;;;;;;;;;5021100;28;20038;-66
2023/12/30 10:49:26;;;;;;;0.63;0.63;;;;;;;;;;5021928;28;20041;-67
2023/12/30 10:51:54;;;;;;;0.77;0.77;;;;;;;;;;5025149;28;20076;-67
2023/12/30 10:54:39;;;;;;;0.50;0.50;;;;;;;;;;5042079;28;20052;-65
2023/12/30 10:57:08;;;;;;;0.65;0.50;;;;;;;;;;5027318;28;20423;-65
2023/12/30 10:59:37;;;;;;;1.15;0.70;;;;;;;;;;5022028;28;20040;-64
2023/12/30 11:02:03;;;;;;;0.40;0.40;;;;;;;;;;5041978;28;20052;-67
2023/12/30 11:04:28;;;;;;;0.43;0.40;;;;;;;;;;5032732;28;20438;-67
2023/12/30 11:06:59;;;;;;;0.82;0.70;;;;;;;;;;5023860;28;20049;-67
2023/12/30 11:09:27;;;;;;;0.88;0.55;;;;;;;;;;5023363;28;20076;-67
2023/12/30 11:11:54;;;;;;;1.92;0.75;;;;;;;;;;5032460;28;20088;-68
2023/12/30 11:14:20;;;;;;;0.70;0.70;;;;;;;;;;5022764;28;20049;-65
2023/12/30 11:16:46;;;;;;;0.65;0.60;;;;;;;;;;5026536;28;20042;-67
2023/12/30 11:19:26;;;;;;;0.40;0.40;;;;;;;;;;5038458;28;20040;-65
2023/12/30 11:21:54;;;;;;;0.63;0.63;;;;;;;;;;5021099;28;20060;-65
2023/12/30 11:24:21;;;;;;;2.25;0.60;;;;;;;;;;5039458;28;20059;-65
2023/12/30 11:26:47;;;;;;;0.52;0.50;;;;;;;;;;5039049;28;20522;-67
2023/12/30 11:29:13;;;;;;;0.70;0.70;;;;;;;;;;5039508;28;20045;-65
2023/12/30 11:31:44;;;;;;;0.68;0.68;;;;;;;;;;5037266;28;20635;-67
2023/12/30 11:34:09;;;;;;;12.90;0.80;;;;;;;;;;5037011;28;20044;-66
2023/12/30 11:36:36;;;;;;;0.50;0.50;;;;;;;;;;5038561;28;20061;-66
2023/12/30 11:39:03;;;;;;;0.40;0.40;;;;;;;;;;5038529;28;20037;-65
2023/12/30 11:41:30;;;;;;;0.60;0.60;;;;;;;;;;5033120;28;20157;-67
2023/12/30 11:43:58;;;;;;;1.23;0.60;;;;;;;;;;5038515;28;20041;-66
2023/12/30 11:46:25;;;;;;;1.85;0.60;;;;;;;;;;5036988;28;20036;-67
2023/12/30 11:48:51;;;;;;;1.35;0.65;;;;;;;;;;5035699;28;20045;-67
2023/12/30 11:51:27;;;;;;;1.30;0.77;;;;;;;;;;5038440;28;20537;-65
2023/12/30 11:53:52;;;;;;;0.90;0.70;;;;;;;;;;5037640;28;20156;-66
2023/12/30 11:56:19;;;;;;;0.93;0.60;;;;;;;;;;5037999;28;20149;-67
2023/12/30 11:58:46;;;;;;;0.95;0.60;;;;;;;;;;5037826;28;20048;-66
2023/12/30 12:01:12;;;;;;;0.38;0.38;;;;;;;;;;5038829;28;20037;-67
2023/12/30 12:03:39;;;;;;;1.20;0.50;;;;;;;;;;5037726;28;20407;-68
2023/12/30 12:06:07;;;;;;;0.50;0.50;;;;;;;;;;5038225;28;20041;-68
2023/12/30 12:08:32;;;;;;;0.40;0.40;;;;;;;;;;5038063;28;20120;-67
2023/12/30 12:10:58;;;;;;;1.27;0.30;;;;;;;;;;5037621;28;20044;-68
2023/12/30 12:13:24;;;;;;;0.30;0.30;;;;;;;;;;5036680;28;20634;-68
2023/12/30 12:15:50;;;;;;;1.05;0.60;;;;;;;;;;5037784;28;20056;-68
2023/12/30 12:18:16;;;;;;;0.40;0.40;;;;;;;;;;5032401;28;20214;-67
2023/12/30 12:20:43;;;;;;;0.77;0.60;;;;;;;;;;5021345;28;20076;-67
2023/12/30 12:23:12;;;;;;;0.60;0.50;;;;;;;;;;5035693;28;20049;-68
2023/12/30 12:25:38;;;;;;;0.32;0.32;;;;;;;;;;5021068;28;20052;-67
2023/12/30 12:28:14;;;;;;;1.15;0.50;;;;;;;;;;5027647;28;20544;-67
2023/12/30 12:30:40;;;;;;;0.45;0.45;;;;;;;;;;5046194;28;20056;-67
2023/12/30 12:33:07;;;;;;;0.55;0.47;;;;;;;;;;5055312;28;20060;-68
2023/12/30 12:35:33;;;;;;;0.50;0.40;;;;;;;;;;5045227;28;20040;-73
2023/12/30 12:37:59;;;;;;;0.30;0.30;;;;;;;;;;5019038;28;20095;-68
2023/12/30 12:40:24;;;;;;;0.38;0.38;;;;;;;;;;5020119;28;20048;-70
2023/12/30 12:42:50;;;;;;;0.63;0.55;;;;;;;;;;5056005;28;20059;-71
2023/12/30 12:45:15;;;;;;;0.20;0.20;;;;;;;;;;5046001;28;20124;-69
2023/12/30 12:47:41;;;;;;;0.55;0.47;;;;;;;;;;5045177;28;20044;-70
2023/12/30 12:50:07;;;;;;;0.43;0.32;;;;;;;;;;5036962;28;20084;-71
2023/12/30 12:52:32;;;;;;;0.85;0.45;;;;;;;;;;5035754;28;20045;-70
2023/12/30 12:54:58;;;;;;;0.40;0.40;;;;;;;;;;5037294;28;20106;-67
2023/12/30 12:57:23;;;;;;;0.50;0.50;;;;;;;;;;5048258;28;20088;-69
2023/12/30 12:59:49;;;;;;;0.88;0.43;;;;;;;;;;5000899;28;20068;-67
2023/12/30 13:02:15;;;;;;;0.80;0.50;;;;;;;;;;5029268;28;20155;-67
2023/12/30 13:04:41;;;;;;;1.65;0.70;;;;;;;;;;5050079;28;20073;-69
2023/12/30 13:07:07;;;;;;;2.15;0.68;;;;;;;;;;5024135;28;20045;-67
2023/12/30 13:11:59;;;;;;;2.92;0.60;;;;;;;;;;5044351;28;20608;-66
2023/12/30 13:14:27;;;;;;;0.38;0.38;;;;;;;;;;5050381;28;20879;-70
2023/12/30 13:17:00;;;;;;;0.50;0.50;;;;;;;;;;5039461;28;20463;-76
2023/12/30 13:19:26;;;;;;;0.73;0.60;;;;;;;;;;5026834;28;20089;-76
2023/12/30 13:21:53;;;;;;;0.60;0.60;;;;;;;;;;5026303;28;20507;-75
2023/12/30 13:24:19;;;;;;;0.70;0.70;;;;;;;;;;5032350;28;20038;-76
2023/12/30 13:26:44;;;;;;;0.50;0.50;;;;;;;;;;5017963;28;20067;-75
2023/12/30 13:29:14;;;;;;;0.40;0.40;;;;;;;;;;5016513;28;20041;-76
2023/12/30 13:31:39;;;;;;;0.60;0.30;;;;;;;;;;5018243;28;20499;-76
2023/12/30 13:34:05;;;;;;;0.38;0.38;;;;;;;;;;4993614;28;20056;-76
2023/12/30 13:36:33;;;;;;;0.43;0.43;;;;;;;;;;5013842;28;20073;-75
2023/12/30 13:39:10;;;;;;;0.50;0.50;;;;;;;;;;5015887;28;20057;-76
2023/12/30 13:41:36;;;;;;;0.75;0.60;;;;;;;;;;5014788;28;20136;-76
2023/12/30 13:44:04;;;;;;;0.52;0.52;;;;;;;;;;5015304;28;20468;-75
2023/12/30 13:51:50;;;;;;;0.50;0.50;;;;;;;;;;5018047;28;20522;-75
2023/12/30 13:54:21;;;;;;;1.35;0.75;;;;;;;;;;5012350;28;20535;-76
2023/12/30 13:56:59;;;;;;;4.25;0.60;;;;;;;;;;5013362;28;20368;-77
2023/12/30 13:59:25;;;;;;;1.05;0.80;;;;;;;;;;5025120;28;20045;-75
2023/12/30 14:01:51;;;;;;;2.30;0.52;;;;;;;;;;5016675;28;20129;-76
2023/12/30 14:04:19;;;;;;;1.65;0.60;;;;;;;;;;5018643;28;20499;-76
2023/12/30 14:06:44;;;;;;;1.65;0.65;;;;;;;;;;5014786;28;20526;-76
2023/12/30 14:09:40;;;;;;;0.43;0.43;;;;;;;;;;5017006;28;20042;-76
2023/12/30 14:12:07;;;;;;;0.45;0.45;;;;;;;;;;5013942;28;20049;-76
2023/12/30 14:14:44;;;;;;;2.15;0.70;;;;;;;;;;5016566;28;20045;-76
2023/12/30 14:17:10;;;;;;;1.02;0.73;;;;;;;;;;5010523;28;20050;-76
2023/12/30 14:19:36;;;;;;;0.55;0.55;;;;;;;;;;5014346;28;20050;-76
2023/12/30 14:22:04;;;;;;;0.68;0.68;;;;;;;;;;5017024;28;20103;-76
2023/12/30 14:24:30;;;;;;;0.93;0.90;;;;;;;;;;5016274;28;20437;-76
2023/12/30 14:26:55;;;;;;;1.38;0.60;;;;;;;;;;5010845;28;20041;-76
2023/12/30 14:29:21;;;;;;;0.93;0.57;;;;;;;;;;5001918;28;20063;-76
2023/12/30 14:31:47;;;;;;;0.77;0.77;;;;;;;;;;5002298;28;20050;-76
2023/12/30 14:34:13;;;;;;;2.65;0.60;;;;;;;;;;5002853;28;20038;-76
2023/12/30 14:36:38;;;;;;;0.95;0.75;;;;;;;;;;5002623;28;20050;-76
2023/12/30 14:39:06;;;;;;;0.70;0.70;;;;;;;;;;5002544;28;20077;-76
2023/12/30 14:41:32;;;;;;;1.27;0.70;;;;;;;;;;5000730;28;20046;-76
2023/12/30 14:43:57;;;;;;;4.43;0.93;;;;;;;;;;5002597;28;20054;-76
2023/12/30 14:46:22;;;;;;;0.57;0.57;;;;;;;;;;5004058;28;20073;-76